createdAt,value
2022-10-28T00:03:12.991Z,15.48
2022-10-28T00:08:15.211Z,15.07
2022-10-28T00:13:17.398Z,15.88
2022-10-28T00:18:19.636Z,16.02
2022-10-28T00:23:21.830Z,16.38
2022-10-28T00:28:24.063Z,15.02
2022-10-28T00:33:26.233Z,15.70
2022-10-28T00:38:31.347Z,15.50
2022-10-28T00:43:39.797Z,15.68
2022-10-28T00:48:45.932Z,15.88
2022-10-28T00:53:50.621Z,16.27
2022-10-28T00:58:57.478Z,16.60
2022-10-28T01:04:01.179Z,16.70
2022-10-28T01:09:03.347Z,16.27
2022-10-28T01:14:33.089Z,15.68
2022-10-28T01:20:08.900Z,15.30
2022-10-28T01:25:44.068Z,15.10
2022-10-28T01:31:26.253Z,14.77
2022-10-28T01:36:47.315Z,15.27
2022-10-28T01:41:55.275Z,16.65
2022-10-28T01:46:57.554Z,15.60
2022-10-28T01:52:06.374Z,15.52
2022-10-28T01:57:10.394Z,16.07
2022-10-28T02:02:12.645Z,15.63
2022-10-28T02:07:15.346Z,16.05
2022-10-28T02:12:20.576Z,15.98
2022-10-28T02:18:00.102Z,16.00
2022-10-28T02:23:11.886Z,14.52
2022-10-28T02:28:39.173Z,14.60
2022-10-28T02:33:43.277Z,14.90
2022-10-28T02:38:55.126Z,14.77
2022-10-28T02:44:03.462Z,13.82
2022-10-28T02:49:09.664Z,15.18
2022-10-28T02:54:16.624Z,13.60
2022-10-28T02:59:18.951Z,13.90
2022-10-28T03:04:21.157Z,13.07
2022-10-28T03:09:23.530Z,12.63
2022-10-28T03:14:25.745Z,13.07
2022-10-28T03:19:28.115Z,12.27
2022-10-28T03:24:30.392Z,12.05
2022-10-28T03:29:32.853Z,11.18
2022-10-28T03:34:35.069Z,12.70
2022-10-28T03:39:37.482Z,11.30
2022-10-28T03:44:39.845Z,10.98
2022-10-28T03:49:42.282Z,10.75
2022-10-28T03:54:44.509Z,11.32
2022-10-28T03:59:46.892Z,10.48
2022-10-28T04:04:49.246Z,10.75
2022-10-28T04:09:51.852Z,11.27
2022-10-28T04:14:54.073Z,11.15
2022-10-28T04:19:56.348Z,12.02
2022-10-28T04:24:58.640Z,11.88
2022-10-28T04:30:00.867Z,11.50
2022-10-28T04:35:03.085Z,12.35
2022-10-28T04:40:06.791Z,11.98
2022-10-28T04:45:09.750Z,11.88
2022-10-28T04:50:11.983Z,11.75
2022-10-28T04:55:14.280Z,13.32
2022-10-28T05:00:16.727Z,12.60
2022-10-28T05:05:19.481Z,11.93
2022-10-28T05:10:21.736Z,12.48
2022-10-28T05:15:23.991Z,11.75
2022-10-28T05:20:26.157Z,12.02
2022-10-28T05:25:28.741Z,12.25
2022-10-28T05:30:30.996Z,12.38
2022-10-28T05:35:33.965Z,12.77
2022-10-28T05:40:36.422Z,12.00
2022-10-28T05:45:38.852Z,11.30
2022-10-28T05:50:41.190Z,11.98
2022-10-28T05:55:46.822Z,11.40
2022-10-28T06:00:50.162Z,11.18
2022-10-28T06:05:52.621Z,11.20
2022-10-28T06:10:54.342Z,10.32
2022-10-28T06:15:56.759Z,11.27
2022-10-28T06:20:59.644Z,9.20
2022-10-28T06:26:03.761Z,10.35
2022-10-28T06:31:08.231Z,10.98
2022-10-28T06:36:10.602Z,9.23
2022-10-28T06:41:12.808Z,10.68
2022-10-28T06:46:15.118Z,10.55
2022-10-28T06:51:18.851Z,10.57
2022-10-28T06:56:21.381Z,10.52
2022-10-28T07:01:23.760Z,10.13
2022-10-28T07:06:26.007Z,8.18
2022-10-28T07:11:28.240Z,10.23
2022-10-28T07:16:30.429Z,7.95
2022-10-28T07:21:32.828Z,9.00
2022-10-28T07:26:35.101Z,7.28
2022-10-28T07:31:37.299Z,8.50
2022-10-28T07:36:39.633Z,9.00
2022-10-28T07:41:41.909Z,7.85
2022-10-28T07:46:44.172Z,8.52
2022-10-28T07:51:46.479Z,8.15
2022-10-28T07:56:48.747Z,7.28
2022-10-28T08:01:50.987Z,7.18
2022-10-28T08:11:57.530Z,7.25
2022-10-28T08:16:59.814Z,7.88
2022-10-28T08:22:03.414Z,7.15
2022-10-28T08:27:05.835Z,6.97
2022-10-28T08:32:11.197Z,7.32
2022-10-28T08:37:13.580Z,7.80
2022-10-28T08:42:41.336Z,6.60
2022-10-28T08:48:15.813Z,7.03
2022-10-28T08:53:27.635Z,6.88
2022-10-28T08:58:33.637Z,6.88
2022-10-28T09:03:42.592Z,6.43
2022-10-28T09:08:49.109Z,5.80
2022-10-28T09:14:04.820Z,5.90
2022-10-28T09:19:15.591Z,5.20
2022-10-28T09:24:40.471Z,4.43
2022-10-28T09:30:06.089Z,4.95
2022-10-28T09:35:16.732Z,5.35
2022-10-28T09:40:30.220Z,5.63
2022-10-28T09:45:36.377Z,7.70
2022-10-28T09:50:39.077Z,5.00
2022-10-28T09:55:41.389Z,5.95
2022-10-28T10:00:43.705Z,5.35
2022-10-28T10:05:50.311Z,3.22
2022-10-28T10:10:55.921Z,3.53
2022-10-28T10:16:05.463Z,3.33
2022-10-28T10:21:07.637Z,3.38
2022-10-28T10:26:13.118Z,3.47
2022-10-28T10:31:33.553Z,4.30
2022-10-28T10:36:35.851Z,5.68
2022-10-28T10:41:44.605Z,3.30
2022-10-28T10:47:07.455Z,3.40
2022-10-28T10:52:23.351Z,3.65
2022-10-28T10:57:26.865Z,3.00
2022-10-28T11:02:40.081Z,3.10
2022-10-28T11:07:51.202Z,4.82
2022-10-28T11:12:58.613Z,3.67
2022-10-28T11:18:25.654Z,3.58
2022-10-28T11:23:55.286Z,4.40
2022-10-28T11:34:34.537Z,5.80
2022-10-28T11:40:34.186Z,4.97
2022-10-28T11:45:51.541Z,6.40
2022-10-28T11:50:59.929Z,3.50
2022-10-28T11:56:20.504Z,4.13
2022-10-28T12:01:25.561Z,4.07
2022-10-28T12:06:58.981Z,3.88
2022-10-28T12:12:12.867Z,4.13
2022-10-28T12:17:50.547Z,3.30
2022-10-28T12:22:58.682Z,2.80
2022-10-28T12:28:06.138Z,2.88
2022-10-28T12:33:16.802Z,2.63
2022-10-28T12:38:47.501Z,2.80
2022-10-28T12:44:14.847Z,2.85
2022-10-28T12:49:25.823Z,2.88
2022-10-28T12:54:42.570Z,3.17
2022-10-28T12:59:53.008Z,2.75
2022-10-28T13:04:56.010Z,2.17
2022-10-28T13:10:02.934Z,2.40
2022-10-28T13:15:26.767Z,2.60
2022-10-28T13:20:39.528Z,2.60
2022-10-28T13:25:47.459Z,2.35
2022-10-28T13:31:04.571Z,4.43
2022-10-28T13:36:11.719Z,3.33
2022-10-28T13:41:29.263Z,2.15
2022-10-28T13:46:56.481Z,1.90
2022-10-28T13:52:16.116Z,2.70
2022-10-28T13:57:24.605Z,2.30
2022-10-28T14:02:40.622Z,1.80
2022-10-28T14:07:55.075Z,2.67
2022-10-28T14:13:09.745Z,2.40
2022-10-28T14:18:43.136Z,2.22
2022-10-28T14:23:42.889Z,2.50
2022-10-28T14:28:45.168Z,1.90
2022-10-28T14:34:13.129Z,1.85
2022-10-28T14:39:54.107Z,1.92
2022-10-28T14:45:18.307Z,1.60
2022-10-28T14:50:25.297Z,1.65
2022-10-28T14:55:32.253Z,2.10
2022-10-28T15:00:41.362Z,2.10
2022-10-28T15:05:43.581Z,2.00
2022-10-28T15:10:50.029Z,1.90
2022-10-28T15:15:58.220Z,1.80
2022-10-28T15:21:12.910Z,2.40
2022-10-28T15:26:17.174Z,2.88
2022-10-28T15:31:19.349Z,3.33
2022-10-28T15:36:24.077Z,2.53
2022-10-28T15:41:26.310Z,2.55
2022-10-28T15:46:30.428Z,2.05
2022-10-28T15:51:32.899Z,2.80
2022-10-28T15:56:54.435Z,4.07
2022-10-28T16:01:59.115Z,4.50
2022-10-28T16:07:08.466Z,4.47
2022-10-28T16:17:27.485Z,3.33
2022-10-28T16:22:31.661Z,2.40
2022-10-28T16:27:34.204Z,3.67
2022-10-28T16:32:42.097Z,2.53
2022-10-28T16:37:47.338Z,2.92
2022-10-28T16:42:52.125Z,2.70
2022-10-28T16:48:00.683Z,3.75
2022-10-28T16:53:02.940Z,3.50
2022-10-28T16:58:05.155Z,3.20
2022-10-28T17:03:10.418Z,2.92
2022-10-28T17:08:13.077Z,3.30
2022-10-28T17:13:15.908Z,4.68
2022-10-28T17:18:18.119Z,7.25
2022-10-28T17:23:23.666Z,4.60
2022-10-28T17:28:26.338Z,6.32
2022-10-28T17:33:28.677Z,5.80
2022-10-28T17:38:30.985Z,7.05
2022-10-28T17:43:33.170Z,6.35
2022-10-28T17:48:36.594Z,5.57
2022-10-28T17:53:39.176Z,6.03
2022-10-28T17:58:41.972Z,7.05
2022-10-28T18:03:44.289Z,6.40
2022-10-28T18:08:47.048Z,7.30
2022-10-28T18:13:52.120Z,5.43
2022-10-28T18:18:55.925Z,5.53
2022-10-28T18:24:04.230Z,6.22
2022-10-28T18:29:10.504Z,6.63
2022-10-28T18:34:12.856Z,7.05
2022-10-28T18:39:16.791Z,7.00
2022-10-28T18:44:21.973Z,7.05
2022-10-28T18:49:24.337Z,7.57
2022-10-28T18:54:26.496Z,6.53
2022-10-28T18:59:28.699Z,7.65
2022-10-28T19:04:31.044Z,6.93
2022-10-28T19:09:33.328Z,6.82
2022-10-28T19:14:35.532Z,7.25
2022-10-28T19:19:39.343Z,7.25
2022-10-28T19:24:41.830Z,9.85
2022-10-28T19:29:44.076Z,9.10
2022-10-28T19:34:46.623Z,8.45
2022-10-28T19:39:52.927Z,8.02
2022-10-28T19:44:58.117Z,10.93
2022-10-28T19:50:00.604Z,7.75
2022-10-28T19:55:03.151Z,8.55
2022-10-28T20:00:06.211Z,15.05
2022-10-28T20:05:09.100Z,9.65
2022-10-28T20:10:11.399Z,10.27
2022-10-28T20:15:13.826Z,13.02
2022-10-28T20:20:16.323Z,12.07
2022-10-28T20:25:18.644Z,9.35
2022-10-28T20:30:21.251Z,8.15
2022-10-28T20:35:23.911Z,8.10
2022-10-28T20:40:26.296Z,7.43
2022-10-28T20:45:28.950Z,9.30
2022-10-28T20:50:31.361Z,9.02
2022-10-28T20:55:33.720Z,8.50
2022-10-28T21:00:36.068Z,7.50
2022-10-28T21:05:39.061Z,7.93
2022-10-28T21:10:41.684Z,6.43
2022-10-28T21:15:46.049Z,7.20
2022-10-28T21:20:48.291Z,7.18
2022-10-28T21:26:05.475Z,7.00
2022-10-28T21:31:13.812Z,6.35
2022-10-28T21:36:19.623Z,6.32
2022-10-28T21:41:22.707Z,7.45
2022-10-28T21:46:24.938Z,8.05
2022-10-28T21:51:27.142Z,8.68
2022-10-28T21:56:29.444Z,7.45
2022-10-28T22:01:33.332Z,8.15
2022-10-28T22:06:35.812Z,8.80
2022-10-28T22:11:38.083Z,7.43
2022-10-28T22:16:40.421Z,7.57
2022-10-28T22:21:43.837Z,7.78
2022-10-28T22:26:46.185Z,6.18
2022-10-28T22:31:48.559Z,6.47
2022-10-28T22:36:50.853Z,6.95
2022-10-28T22:41:53.160Z,7.07
2022-10-28T22:46:55.484Z,8.00
2022-10-28T22:51:57.661Z,5.93
2022-10-28T22:56:59.868Z,5.90
2022-10-28T23:02:02.188Z,5.80
2022-10-28T23:07:04.722Z,6.57
2022-10-28T23:12:07.878Z,5.75
2022-10-28T23:17:10.117Z,6.22
2022-10-28T23:22:12.721Z,6.30
2022-10-28T23:27:15.016Z,5.93
2022-10-28T23:32:17.197Z,7.22
2022-10-28T23:37:19.481Z,5.97
2022-10-28T23:42:21.921Z,6.43
2022-10-28T23:47:24.132Z,6.07
2022-10-28T23:52:26.455Z,5.20
2022-10-28T23:57:28.743Z,5.38
